WetterOnline ( https://www.wetteronline.de )

Wetter aktuell Reschensee

Aktuelles Wetter: Reschenpass (1461m)

6-stündlich | Neueste Meldungen
Ortszeit Temperatur Wetter
Sa, 06.06. 2:00 10.2° C bewölkt
Fr, 05.06. 20:00 13.6° C wolkig
Fr, 05.06. 14:00 13.0° C bewölkt
Fr, 05.06. 8:00 6.4° C wolkig
Fr, 05.06. 2:00 6.0° C leichter Regen
Do, 04.06. 20:00 8.6° C leichter Regen
Do, 04.06. 14:00 9.6° C leichter Regen
Do, 04.06. 8:00 8.8° C bedeckt
Ortszeit Temperatur Wetter
Sa, 06.06. 3:00 10.0° C bewölkt
Sa, 06.06. 2:55 10° C leicht bewölkt
Sa, 06.06. 2:00 10.2° C bewölkt
Sa, 06.06. 1:55 10° C leicht bewölkt
Sa, 06.06. 1:00 10.4° C bewölkt
Sa, 06.06. 0:55 10° C leicht bewölkt
Sa, 06.06. 0:00 10.6° C bewölkt
Fr, 05.06. 23:55 11° C leicht bewölkt
Fr, 05.06. 23:00 11.0° C bewölkt
Ortszeit Relative Feuchte Sichtweite
Sa, 06.06. 2:00 86% 10 km
Fr, 05.06. 20:00 45% 15 km
Fr, 05.06. 14:00 49% 15 km
Fr, 05.06. 8:00 88% 20 km
Fr, 05.06. 2:00 94% 3.0 km
Do, 04.06. 20:00 100% 6 km
Do, 04.06. 14:00 98% 7 km
Do, 04.06. 8:00 97% 5.0 km
Ortszeit Relative Feuchte Sichtweite
Sa, 06.06. 3:00 88% 20 km
Sa, 06.06. 2:55 87% >10 km
Sa, 06.06. 2:00 86% 10 km
Sa, 06.06. 1:55 87% >10 km
Sa, 06.06. 1:00 85% 10 km
Sa, 06.06. 0:55 87% >10 km
Sa, 06.06. 0:00 83% 10 km
Fr, 05.06. 23:55 82% >10 km
Fr, 05.06. 23:00 77% 12 km
Ortszeit Niederschlagsmenge Niederschlagsart
Sa, 06.06. 2:00 0.0 l/m2 in 6 Std. -
Fr, 05.06. 20:00 0.0 l/m2 in 12 Std. -
Fr, 05.06. 14:00 0.0 l/m2 in 6 Std. -
Fr, 05.06. 8:00 7 l/m2 in 12 Std. Regen
Fr, 05.06. 2:00 7 l/m2 in 6 Std. Regen
Do, 04.06. 20:00 1 l/m2 in 12 Std. Regen
Do, 04.06. 14:00 0.4 l/m2 in 6 Std. Regen
Do, 04.06. 8:00 0.1 l/m2 in 12 Std. Regen
Ortszeit Niederschlagsmenge Niederschlagsart
Sa, 06.06. 3:00 keine Meldung -
Sa, 06.06. 2:55 keine Meldung -
Sa, 06.06. 2:00 keine Meldung -
Sa, 06.06. 1:55 keine Meldung -
Sa, 06.06. 1:00 keine Meldung -
Sa, 06.06. 0:55 keine Meldung -
Sa, 06.06. 0:00 keine Meldung -
Fr, 05.06. 23:55 keine Meldung -
Fr, 05.06. 23:00 keine Meldung -
Ortszeit Stärke Spitze Richtung
km/h Bft. km/h Grad Sektor
Sa, 06.06. 2:00 7 2 - 190° S
Fr, 05.06. 20:00 7 2 - 180° S
Fr, 05.06. 14:00 13 3 - 30° NO
Fr, 05.06. 8:00 7 2 - 40° NO
Fr, 05.06. 2:00 9 2 - 20° N
Do, 04.06. 20:00 13 3 - 190° S
Do, 04.06. 14:00 15 3 - 170° S
Do, 04.06. 8:00 15 3 - 150° SO
Ortszeit Stärke Spitze Richtung
km/h Bft. km/h Grad Sektor
Sa, 06.06. 3:00 7 2 - 220° SW
Sa, 06.06. 2:55 7 2 - 220° SW
Sa, 06.06. 2:00 7 2 - 190° S
Sa, 06.06. 1:55 7 2 - 190° S
Sa, 06.06. 1:00 4 1 - 160° S
Sa, 06.06. 0:55 4 1 - 160° S
Sa, 06.06. 0:00 7 2 - 240° SW
Fr, 05.06. 23:55 7 2 - 240° SW
Fr, 05.06. 23:00 4 1 - 220° SW
Ortszeit Untergrenze Bedeckung Gattung
total tief tief mittel hoch
Sa, 06.06. 2:00 900 m 8/8 4/8 Sc Ac -
Fr, 05.06. 20:00 600 m 6/8 2/8 Cu Ac -
Fr, 05.06. 14:00 600 m 8/8 3/8 Cu Ac -
Fr, 05.06. 8:00 750 m 6/8 6/8 Sc - -
Fr, 05.06. 2:00 450 m 8/8 8/8 St - -
Do, 04.06. 20:00 300 m 8/8 8/8 St - -
Do, 04.06. 14:00 300 m 8/8 8/8 St - -
Do, 04.06. 8:00 240 m 8/8 8/8 Sc - -
Ortszeit Bedeckungsgrad in Achtel und Wolkenuntergrenze
Sa, 06.06. 3:00 3(900m) 6(1800m)
Sa, 06.06. 2:55 3-4(900m)
Sa, 06.06. 2:00 4(900m) 5(1800m)
Sa, 06.06. 1:55 3-4(900m)
Sa, 06.06. 1:00 3(900m) 6(1800m)
Sa, 06.06. 0:55 3-4(900m)
Sa, 06.06. 0:00 3(750m) 6(1800m)
Fr, 05.06. 23:55 3-4(750m)
Fr, 05.06. 23:00 4(750m) 6(1800m)
Ortszeit Stationsdruck (hPa) Tendenz (hPa in 3 Std.)
Sa, 06.06. 2:00 845 + 1,3
Fr, 05.06. 20:00 841 + 1,2
Fr, 05.06. 14:00 840 + 0,9
Fr, 05.06. 8:00 838 + 0,3
Fr, 05.06. 2:00 838 + 0,4
Do, 04.06. 20:00 838 - 0,6
Do, 04.06. 14:00 840 - 0,8
Do, 04.06. 8:00 841 - 1,0
Ortszeit Stationsdruck (hPa) Tendenz (hPa in 3 Std.)
Sa, 06.06. 3:00 847 + 1,9
Sa, 06.06. 2:55 - keine Meldung
Sa, 06.06. 2:00 845 + 1,3
Sa, 06.06. 1:55 - keine Meldung
Sa, 06.06. 1:00 845 + 2,3
Sa, 06.06. 0:55 - keine Meldung
Sa, 06.06. 0:00 845 + 2,8
Fr, 05.06. 23:55 - keine Meldung
Fr, 05.06. 23:00 844 + 3,0
Ortszeit Schneehöhe (cm)
Sa, 06.06. 2:00 -
Fr, 05.06. 20:00 -
Fr, 05.06. 14:00 -
Fr, 05.06. 8:00 0
Fr, 05.06. 2:00 -
Do, 04.06. 20:00 -
Do, 04.06. 14:00 -
Do, 04.06. 8:00 0
Ortszeit Schneehöhe (cm)
Sa, 06.06. 3:00 -
Sa, 06.06. 2:55 -
Sa, 06.06. 2:00 -
Sa, 06.06. 1:55 -
Sa, 06.06. 1:00 -
Sa, 06.06. 0:55 -
Sa, 06.06. 0:00 -
Fr, 05.06. 23:55 -
Fr, 05.06. 23:00 -
Link zu dieser Seite / Seite empfehlen

Das Wetter in ...